Time;durP1;ratioP1;P1;durP2;ratioP2;P2;SDS_P1;SDS_P2;PMS_P1;PMS_P2;Temp;Humidity;BMP_temperature;BMP_pressure;BME280_temperature;BME280_humidity;BME280_pressure;Samples;Min_cycle;Max_cycle;Signal;HPM_P1;HPM_P2
2023/04/16 00:00:02;;;;;;;;;9.25;7.75;;;;;;;;5026822;28;61818;-79
2023/04/16 00:02:27;;;;;;;;;9.25;7.00;;;;;;;;5050923;28;62489;-79
2023/04/16 00:04:53;;;;;;;;;9.75;7.00;;;;;;;;5064341;28;61738;-79
2023/04/16 00:07:18;;;;;;;;;11.00;8.50;;;;;;;;5064362;28;61989;-79
2023/04/16 00:09:43;;;;;;;;;9.50;8.50;;;;;;;;5064490;28;61763;-79
2023/04/16 00:12:08;;;;;;;;;7.25;5.00;;;;;;;;5063931;28;61962;-79
2023/04/16 00:14:33;;;;;;;;;9.75;8.00;;;;;;;;5063850;28;61760;-80
2023/04/16 00:16:59;;;;;;;;;19.25;12.25;;;;;;;;5064574;28;61937;-80
2023/04/16 00:19:24;;;;;;;;;10.50;10.00;;;;;;;;5053443;28;61842;-80
2023/04/16 00:21:49;;;;;;;;;13.00;11.50;;;;;;;;5042853;28;62875;-80
2023/04/16 00:24:15;;;;;;;;;12.50;12.50;;;;;;;;5043590;28;61972;-80
2023/04/16 00:26:40;;;;;;;;;15.25;12.75;;;;;;;;5044280;28;61928;-80
2023/04/16 00:29:05;;;;;;;;;13.50;10.75;;;;;;;;5044472;28;61975;-80
2023/04/16 00:31:31;;;;;;;;;15.50;12.75;;;;;;;;5043211;28;62126;-80
2023/04/16 00:33:57;;;;;;;;;13.75;12.75;;;;;;;;5043769;28;61684;-80
2023/04/16 00:36:23;;;;;;;;;16.50;13.75;;;;;;;;5025454;28;61969;-80
2023/04/16 00:38:48;;;;;;;;;15.25;12.25;;;;;;;;5025918;28;62049;-80
2023/04/16 00:41:13;;;;;;;;;19.25;14.25;;;;;;;;5043278;28;62101;-80
2023/04/16 00:43:38;;;;;;;;;16.00;12.25;;;;;;;;5025967;28;61919;-80
2023/04/16 00:46:05;;;;;;;;;14.75;9.75;;;;;;;;5025132;28;62004;-80
2023/04/16 00:48:31;;;;;;;;;19.75;12.50;;;;;;;;5044124;28;61956;-80
2023/04/16 00:50:57;;;;;;;;;16.25;11.25;;;;;;;;5042416;28;63003;-80
2023/04/16 00:53:23;;;;;;;;;15.25;12.50;;;;;;;;5043794;28;61963;-79
2023/04/16 00:55:49;;;;;;;;;15.25;11.75;;;;;;;;5043800;28;62010;-79
2023/04/16 00:58:15;;;;;;;;;11.50;9.50;;;;;;;;5025816;28;62008;-79
2023/04/16 01:00:40;;;;;;;;;15.50;12.00;;;;;;;;5042828;28;61976;-80
2023/04/16 01:03:05;;;;;;;;;8.75;8.25;;;;;;;;5043125;28;61772;-80
2023/04/16 01:05:31;;;;;;;;;11.00;10.00;;;;;;;;5058444;28;61743;-80
2023/04/16 01:07:57;;;;;;;;;10.50;8.00;;;;;;;;5025621;28;62143;-80
2023/04/16 01:10:22;;;;;;;;;11.25;9.00;;;;;;;;5042922;28;62067;-80
2023/04/16 01:12:48;;;;;;;;;12.25;9.25;;;;;;;;5025586;28;61743;-80
2023/04/16 01:15:13;;;;;;;;;13.25;10.00;;;;;;;;5042756;28;62000;-80
2023/04/16 01:17:38;;;;;;;;;14.25;10.25;;;;;;;;5025619;28;62350;-80
2023/04/16 01:20:03;;;;;;;;;15.00;8.50;;;;;;;;5042039;28;62778;-80
2023/04/16 01:22:29;;;;;;;;;14.75;12.00;;;;;;;;5043037;28;61986;-80
2023/04/16 01:24:54;;;;;;;;;15.00;11.00;;;;;;;;5031464;28;61777;-80
2023/04/16 01:27:19;;;;;;;;;12.00;9.50;;;;;;;;5023444;28;61849;-80
2023/04/16 01:29:44;;;;;;;;;17.50;12.50;;;;;;;;5004961;28;65068;-80
2023/04/16 01:32:10;;;;;;;;;13.00;8.75;;;;;;;;5022783;28;61998;-80
2023/04/16 01:34:35;;;;;;;;;13.00;11.50;;;;;;;;5005077;28;61738;-80
2023/04/16 01:37:00;;;;;;;;;13.75;9.50;;;;;;;;5023257;28;62102;-80
2023/04/16 01:39:26;;;;;;;;;12.50;12.50;;;;;;;;5022298;28;61956;-80
2023/04/16 01:41:51;;;;;;;;;12.75;10.50;;;;;;;;5023235;28;61902;-80
2023/04/16 01:44:16;;;;;;;;;15.25;10.50;;;;;;;;5023133;28;61673;-80
2023/04/16 01:46:42;;;;;;;;;9.25;8.50;;;;;;;;5022736;28;61811;-80
2023/04/16 01:49:07;;;;;;;;;18.50;11.25;;;;;;;;5022161;28;61761;-80
2023/04/16 01:51:33;;;;;;;;;13.00;10.75;;;;;;;;5004623;28;61873;-80
2023/04/16 01:53:58;;;;;;;;;14.50;13.25;;;;;;;;5022939;28;62074;-80
2023/04/16 01:56:23;;;;;;;;;14.75;13.00;;;;;;;;5023111;28;61748;-80
2023/04/16 01:58:49;;;;;;;;;11.75;10.25;;;;;;;;5022227;28;61771;-80
2023/04/16 02:01:14;;;;;;;;;11.75;11.00;;;;;;;;5022497;28;61684;-80
2023/04/16 02:03:40;;;;;;;;;11.75;9.25;;;;;;;;5042074;28;61735;-80
2023/04/16 02:06:05;;;;;;;;;9.75;7.00;;;;;;;;5042549;28;61975;-80
2023/04/16 02:08:30;;;;;;;;;14.00;8.25;;;;;;;;5041415;28;63306;-80
2023/04/16 02:10:56;;;;;;;;;13.75;8.50;;;;;;;;5042434;28;61943;-79
2023/04/16 02:13:22;;;;;;;;;9.50;7.25;;;;;;;;5024408;28;61963;-79
2023/04/16 02:15:48;;;;;;;;;10.00;8.00;;;;;;;;5042084;28;62016;-80
2023/04/16 02:18:14;;;;;;;;;12.00;9.00;;;;;;;;5041659;28;61790;-80
2023/04/16 02:20:40;;;;;;;;;12.75;8.00;;;;;;;;5041934;28;61980;-79
2023/04/16 02:23:05;;;;;;;;;12.00;8.00;;;;;;;;5024605;28;61951;-80
2023/04/16 02:25:31;;;;;;;;;15.25;9.50;;;;;;;;5024319;28;61954;-80
2023/04/16 02:27:56;;;;;;;;;10.00;8.00;;;;;;;;5041936;28;62490;-80
2023/04/16 02:30:22;;;;;;;;;8.25;7.75;;;;;;;;5023882;28;61862;-80
2023/04/16 02:32:48;;;;;;;;;14.00;9.00;;;;;;;;5024173;28;62107;-80
2023/04/16 02:35:13;;;;;;;;;13.00;10.50;;;;;;;;5023911;28;62168;-79
2023/04/16 02:37:39;;;;;;;;;11.00;9.25;;;;;;;;5041466;28;61977;-79
2023/04/16 02:40:05;;;;;;;;;12.00;9.75;;;;;;;;5042163;28;61796;-79
2023/04/16 02:42:30;;;;;;;;;13.75;10.50;;;;;;;;5042023;28;61910;-80
2023/04/16 02:44:55;;;;;;;;;11.25;11.25;;;;;;;;5041324;28;61718;-80
2023/04/16 02:47:20;;;;;;;;;12.00;9.00;;;;;;;;5041489;28;62835;-80
2023/04/16 02:49:46;;;;;;;;;12.00;10.00;;;;;;;;5023817;28;61998;-80
2023/04/16 02:52:11;;;;;;;;;10.50;10.00;;;;;;;;5041619;28;62133;-80
2023/04/16 02:54:36;;;;;;;;;20.50;9.50;;;;;;;;5041964;28;61774;-80
2023/04/16 02:57:02;;;;;;;;;13.25;8.50;;;;;;;;5041552;28;62852;-80
2023/04/16 02:59:27;;;;;;;;;11.50;9.75;;;;;;;;5041320;28;62589;-80
2023/04/16 03:01:52;;;;;;;;;8.75;7.75;;;;;;;;5044125;28;61739;-80
2023/04/16 03:04:17;;;;;;;;;14.75;8.75;;;;;;;;5062491;28;61689;-80
2023/04/16 03:06:43;;;;;;;;;8.75;8.50;;;;;;;;5060739;28;63070;-79
2023/04/16 03:09:08;;;;;;;;;12.25;9.75;;;;;;;;5034867;28;61990;-79
2023/04/16 03:11:33;;;;;;;;;11.25;8.00;;;;;;;;5003879;28;61907;-79
2023/04/16 03:13:58;;;;;;;;;8.00;8.00;;;;;;;;5021639;28;61716;-79
2023/04/16 03:16:24;;;;;;;;;11.00;8.00;;;;;;;;5002872;28;63708;-79
2023/04/16 03:18:49;;;;;;;;;9.50;6.75;;;;;;;;5033504;28;61688;-79
2023/04/16 03:21:14;;;;;;;;;12.00;9.25;;;;;;;;5025547;28;61866;-79
2023/04/16 03:23:40;;;;;;;;;13.50;8.00;;;;;;;;5027297;28;61867;-79
2023/04/16 03:26:05;;;;;;;;;8.00;8.00;;;;;;;;5044248;28;62607;-79
2023/04/16 03:28:30;;;;;;;;;12.50;11.25;;;;;;;;5044761;28;61720;-79
2023/04/16 03:30:55;;;;;;;;;13.50;9.25;;;;;;;;5044881;28;61724;-79
2023/04/16 03:33:21;;;;;;;;;11.00;8.00;;;;;;;;5045627;28;61712;-79
2023/04/16 03:35:53;;;;;;;;;12.75;8.50;;;;;;;;5022202;28;63662;-79
2023/04/16 03:38:18;;;;;;;;;11.25;7.50;;;;;;;;5025122;28;61773;-79
2023/04/16 03:40:43;;;;;;;;;11.50;8.25;;;;;;;;5036264;28;61717;-80
2023/04/16 03:43:09;;;;;;;;;7.50;6.50;;;;;;;;5044834;28;61665;-80
2023/04/16 03:45:34;;;;;;;;;11.25;9.75;;;;;;;;5025729;28;64762;-80
2023/04/16 03:47:59;;;;;;;;;8.00;7.75;;;;;;;;5033764;28;61718;-80
2023/04/16 03:50:25;;;;;;;;;14.50;11.00;;;;;;;;5024716;28;61762;-80
2023/04/16 03:52:50;;;;;;;;;12.75;10.00;;;;;;;;5036760;28;61806;-80
2023/04/16 03:55:15;;;;;;;;;9.25;8.25;;;;;;;;5025295;28;63640;-80
2023/04/16 03:57:40;;;;;;;;;10.50;8.75;;;;;;;;5044311;28;61716;-80
2023/04/16 04:00:06;;;;;;;;;10.25;7.00;;;;;;;;5044297;28;61727;-80
2023/04/16 04:02:31;;;;;;;;;10.00;9.00;;;;;;;;5052373;28;61850;-80
2023/04/16 04:04:56;;;;;;;;;10.50;10.00;;;;;;;;5050299;28;61903;-80
2023/04/16 04:07:22;;;;;;;;;14.00;11.75;;;;;;;;5044057;28;62528;-80
2023/04/16 04:09:47;;;;;;;;;9.75;6.75;;;;;;;;5044509;28;62078;-80
2023/04/16 04:12:12;;;;;;;;;12.00;8.50;;;;;;;;5044210;28;62179;-80
2023/04/16 04:14:38;;;;;;;;;8.25;8.00;;;;;;;;5025037;28;65091;-80
2023/04/16 04:17:04;;;;;;;;;13.25;11.00;;;;;;;;5025862;28;61866;-80
2023/04/16 04:19:29;;;;;;;;;12.75;8.00;;;;;;;;5044202;28;61736;-80
2023/04/16 04:21:55;;;;;;;;;10.75;7.75;;;;;;;;5043951;28;61906;-80
2023/04/16 04:24:20;;;;;;;;;17.00;13.00;;;;;;;;5025969;28;64880;-80
2023/04/16 04:26:45;;;;;;;;;15.50;11.00;;;;;;;;5043883;28;61917;-80
2023/04/16 04:29:11;;;;;;;;;20.75;15.00;;;;;;;;5043983;28;62382;-80
2023/04/16 04:31:36;;;;;;;;;20.00;11.00;;;;;;;;5043157;28;62227;-80
2023/04/16 04:34:01;;;;;;;;;15.25;11.25;;;;;;;;5043243;28;62284;-80
2023/04/16 04:36:26;;;;;;;;;10.50;10.50;;;;;;;;5043863;28;62032;-80
2023/04/16 04:38:51;;;;;;;;;15.00;11.50;;;;;;;;5043974;28;61743;-80
2023/04/16 04:41:17;;;;;;;;;10.75;10.75;;;;;;;;5043660;28;62184;-80
2023/04/16 04:43:42;;;;;;;;;15.00;11.50;;;;;;;;5043504;28;62225;-80
2023/04/16 04:46:08;;;;;;;;;10.00;10.00;;;;;;;;5043310;28;62029;-80
2023/04/16 04:48:33;;;;;;;;;12.50;11.50;;;;;;;;5043543;28;62061;-80
2023/04/16 04:50:58;;;;;;;;;16.00;9.75;;;;;;;;5043741;28;61692;-80
2023/04/16 04:53:23;;;;;;;;;11.75;11.25;;;;;;;;5042421;28;62785;-80
2023/04/16 04:55:49;;;;;;;;;15.25;10.00;;;;;;;;5025382;28;61842;-80
2023/04/16 04:58:14;;;;;;;;;13.75;10.50;;;;;;;;5044179;28;61761;-80
2023/04/16 05:00:41;;;;;;;;;14.50;12.75;;;;;;;;5046261;28;62020;-80
2023/04/16 05:03:09;;;;;;;;;16.00;14.50;;;;;;;;5022463;28;64934;-80
2023/04/16 05:05:34;;;;;;;;;17.00;11.00;;;;;;;;5023723;28;61750;-80
2023/04/16 05:08:00;;;;;;;;;16.00;10.75;;;;;;;;5023445;28;61751;-80
2023/04/16 05:10:25;;;;;;;;;11.50;9.75;;;;;;;;5032134;28;61772;-80
2023/04/16 05:12:51;;;;;;;;;13.25;11.00;;;;;;;;5042933;28;62739;-80
2023/04/16 05:15:16;;;;;;;;;16.75;13.50;;;;;;;;5043739;28;61819;-80
2023/04/16 05:17:41;;;;;;;;;15.00;11.50;;;;;;;;5025660;28;61904;-80
2023/04/16 05:20:07;;;;;;;;;17.50;11.25;;;;;;;;5025552;28;61996;-80
2023/04/16 05:22:32;;;;;;;;;16.25;11.75;;;;;;;;5042101;28;62661;-80
2023/04/16 05:24:58;;;;;;;;;21.25;16.25;;;;;;;;5043052;28;61681;-80
2023/04/16 05:27:23;;;;;;;;;18.75;13.00;;;;;;;;5043127;28;61950;-80
2023/04/16 05:29:48;;;;;;;;;25.25;23.00;;;;;;;;5025563;28;61752;-80
2023/04/16 05:32:13;;;;;;;;;23.75;16.25;;;;;;;;5035077;28;61928;-80
2023/04/16 05:34:39;;;;;;;;;19.00;15.75;;;;;;;;5023007;28;61911;-80
2023/04/16 05:37:04;;;;;;;;;24.00;14.75;;;;;;;;5023068;28;61808;-80
2023/04/16 05:39:29;;;;;;;;;25.50;16.50;;;;;;;;5022805;28;61797;-80
2023/04/16 05:41:55;;;;;;;;;18.75;14.25;;;;;;;;5004647;28;63763;-80
2023/04/16 05:44:20;;;;;;;;;19.00;16.25;;;;;;;;5038565;28;62134;-80
2023/04/16 05:46:45;;;;;;;;;16.25;13.00;;;;;;;;5042451;28;61747;-80
2023/04/16 05:49:10;;;;;;;;;18.25;14.00;;;;;;;;5043439;28;61752;-80
2023/04/16 05:51:36;;;;;;;;;11.50;10.25;;;;;;;;5041636;28;62638;-80
2023/04/16 05:54:01;;;;;;;;;16.25;14.50;;;;;;;;5024405;28;61847;-80
2023/04/16 05:56:26;;;;;;;;;12.25;9.00;;;;;;;;5043183;28;61921;-80
2023/04/16 05:58:51;;;;;;;;;16.50;12.00;;;;;;;;5024893;28;61733;-80
2023/04/16 06:01:17;;;;;;;;;16.50;12.50;;;;;;;;5042106;28;62954;-80
2023/04/16 06:03:42;;;;;;;;;19.00;17.25;;;;;;;;5024322;28;61927;-80
2023/04/16 06:06:08;;;;;;;;;19.50;12.75;;;;;;;;5032876;28;61928;-80
2023/04/16 06:08:33;;;;;;;;;20.25;15.25;;;;;;;;5022453;28;61809;-80
2023/04/16 06:10:58;;;;;;;;;14.50;12.00;;;;;;;;5030019;28;62707;-80
2023/04/16 06:13:23;;;;;;;;;16.25;13.50;;;;;;;;5024479;28;62001;-80
2023/04/16 06:15:49;;;;;;;;;24.25;15.00;;;;;;;;5041830;28;61794;-80
2023/04/16 06:18:14;;;;;;;;;25.25;13.75;;;;;;;;5042434;28;62080;-80
2023/04/16 06:20:39;;;;;;;;;11.50;11.50;;;;;;;;5041217;28;62557;-80
2023/04/16 06:23:05;;;;;;;;;25.00;16.25;;;;;;;;5041819;28;61962;-80
2023/04/16 06:25:30;;;;;;;;;18.75;15.00;;;;;;;;5042445;28;62009;-80
2023/04/16 06:27:55;;;;;;;;;18.00;15.50;;;;;;;;5039181;28;61863;-82
2023/04/16 06:30:20;;;;;;;;;23.25;17.75;;;;;;;;5023610;28;63690;-81
2023/04/16 06:32:46;;;;;;;;;16.00;14.25;;;;;;;;5020858;28;61900;-81
2023/04/16 06:35:11;;;;;;;;;20.00;19.00;;;;;;;;5022609;28;61914;-82
2023/04/16 06:37:37;;;;;;;;;22.25;19.25;;;;;;;;5021945;28;62897;-85
2023/04/16 06:40:03;;;;;;;;;19.50;18.25;;;;;;;;5019688;28;63554;-85
2023/04/16 06:42:28;;;;;;;;;21.00;19.50;;;;;;;;5024007;28;61874;-86
2023/04/16 06:44:53;;;;;;;;;29.75;22.75;;;;;;;;5041277;28;61787;-86
2023/04/16 06:47:19;;;;;;;;;23.25;20.25;;;;;;;;5024237;28;62083;-86
2023/04/16 06:49:45;;;;;;;;;25.25;19.00;;;;;;;;5041356;28;63742;-86
2023/04/16 06:52:11;;;;;;;;;22.75;19.75;;;;;;;;5041334;28;61950;-87
2023/04/16 06:54:36;;;;;;;;;24.50;19.50;;;;;;;;5038035;28;61865;-88
2023/04/16 06:57:01;;;;;;;;;24.75;21.00;;;;;;;;5025232;28;61744;-87
2023/04/16 06:59:26;;;;;;;;;27.25;20.25;;;;;;;;5021365;28;62748;-88
2023/04/16 07:01:52;;;;;;;;;35.50;25.00;;;;;;;;5034471;28;62000;-89
2023/04/16 07:04:17;;;;;;;;;24.50;21.00;;;;;;;;5043937;28;61828;-88
2023/04/16 07:06:42;;;;;;;;;32.00;21.75;;;;;;;;5042181;28;61703;-88
2023/04/16 07:09:07;;;;;;;;;25.25;20.50;;;;;;;;5041174;28;62643;-86
2023/04/16 07:11:33;;;;;;;;;26.75;22.25;;;;;;;;5023207;28;61812;-88
2023/04/16 07:14:08;;;;;;;;;;;;;;;;;;;;;
2023/04/16 07:16:38;;;;;;;;;35.25;24.00;;;;;;;;5030600;28;68678;-87
2023/04/16 07:19:03;;;;;;;;;22.50;17.25;;;;;;;;5035824;28;61854;-81
2023/04/16 07:21:28;;;;;;;;;24.25;21.00;;;;;;;;5038232;28;62199;-81
2023/04/16 07:23:54;;;;;;;;;30.25;20.75;;;;;;;;5020436;28;61720;-81
2023/04/16 07:26:19;;;;;;;;;31.25;24.25;;;;;;;;5041325;28;61882;-82
2023/04/16 07:28:44;;;;;;;;;30.75;27.75;;;;;;;;5026997;28;61887;-81
2023/04/16 07:31:10;;;;;;;;;31.75;22.25;;;;;;;;5002995;28;61946;-82
2023/04/16 07:33:35;;;;;;;;;26.25;23.75;;;;;;;;5012341;28;61741;-81
2023/04/16 07:36:00;;;;;;;;;28.00;22.25;;;;;;;;5035860;28;62161;-83
2023/04/16 07:38:25;;;;;;;;;28.00;19.00;;;;;;;;5029558;28;61718;-83
2023/04/16 07:40:50;;;;;;;;;27.50;23.50;;;;;;;;5018695;28;61997;-82
2023/04/16 07:43:16;;;;;;;;;25.75;21.50;;;;;;;;5040971;28;62168;-84
2023/04/16 07:45:41;;;;;;;;;25.00;19.75;;;;;;;;5021281;28;61986;-84
2023/04/16 07:48:07;;;;;;;;;25.75;18.00;;;;;;;;5033114;28;61897;-83
2023/04/16 07:50:33;;;;;;;;;22.75;15.25;;;;;;;;5011052;28;62123;-83
2023/04/16 07:52:58;;;;;;;;;22.50;19.00;;;;;;;;5021691;28;61984;-81
2023/04/16 07:55:23;;;;;;;;;28.25;20.50;;;;;;;;5040954;28;62105;-82
2023/04/16 07:57:49;;;;;;;;;22.25;19.75;;;;;;;;5020992;28;64702;-81
2023/04/16 08:00:14;;;;;;;;;25.75;20.00;;;;;;;;5040919;28;61748;-82
2023/04/16 08:02:40;;;;;;;;;30.75;18.75;;;;;;;;5049588;28;62195;-82
2023/04/16 08:05:06;;;;;;;;;26.50;16.75;;;;;;;;5060937;28;61917;-82
2023/04/16 08:07:31;;;;;;;;;23.00;19.75;;;;;;;;5044707;28;63379;-82
2023/04/16 08:09:56;;;;;;;;;31.75;23.75;;;;;;;;5046575;28;61767;-82
2023/04/16 08:12:22;;;;;;;;;19.25;18.00;;;;;;;;5064474;28;61755;-82
2023/04/16 08:14:47;;;;;;;;;25.00;17.75;;;;;;;;5064116;28;61866;-81
2023/04/16 08:17:13;;;;;;;;;20.25;15.75;;;;;;;;5054223;28;61965;-82
2023/04/16 08:19:38;;;;;;;;;19.75;15.25;;;;;;;;5043481;28;62134;-82
2023/04/16 08:22:03;;;;;;;;;22.00;13.75;;;;;;;;5043948;28;61983;-82
2023/04/16 08:24:29;;;;;;;;;26.50;17.50;;;;;;;;5024997;28;61754;-82
2023/04/16 08:26:54;;;;;;;;;15.75;14.25;;;;;;;;5038159;28;62779;-82
2023/04/16 08:29:19;;;;;;;;;16.50;15.00;;;;;;;;5025416;28;62042;-84
2023/04/16 08:31:45;;;;;;;;;22.75;18.25;;;;;;;;5024074;28;61863;-83
2023/04/16 08:34:11;;;;;;;;;16.00;13.25;;;;;;;;5011581;28;62214;-81
2023/04/16 08:36:36;;;;;;;;;23.75;20.25;;;;;;;;5007167;28;64767;-88
2023/04/16 08:39:01;;;;;;;;;16.75;15.00;;;;;;;;5024171;28;61650;-87
2023/04/16 08:41:29;;;;;;;;;16.75;15.25;;;;;;;;5031271;28;62210;-85
2023/04/16 08:43:56;;;;;;;;;23.75;15.50;;;;;;;;5030057;28;61856;-85
2023/04/16 08:46:24;;;;;;;;;26.00;15.25;;;;;;;;5039222;28;61767;-81
2023/04/16 08:48:53;;;;;;;;;23.50;20.00;;;;;;;;5040011;28;61901;-89
2023/04/16 08:51:18;;;;;;;;;26.25;16.25;;;;;;;;5014487;28;62065;-82
2023/04/16 08:53:44;;;;;;;;;22.50;17.50;;;;;;;;5014651;28;62938;-84
2023/04/16 08:56:10;;;;;;;;;22.50;18.75;;;;;;;;5038278;28;62664;-82
2023/04/16 08:58:36;;;;;;;;;23.25;16.00;;;;;;;;5043539;28;61956;-82
2023/04/16 09:01:02;;;;;;;;;21.25;17.75;;;;;;;;5043561;28;61829;-82
2023/04/16 09:03:28;;;;;;;;;17.50;14.50;;;;;;;;5041187;28;61850;-80
2023/04/16 09:05:54;;;;;;;;;14.75;10.75;;;;;;;;5042862;28;61846;-84
2023/04/16 09:08:20;;;;;;;;;18.25;14.00;;;;;;;;5025247;28;62310;-82
2023/04/16 09:10:45;;;;;;;;;23.00;18.00;;;;;;;;5037867;28;62037;-86
2023/04/16 09:13:12;;;;;;;;;24.75;21.50;;;;;;;;5041735;28;61920;-84
2023/04/16 09:15:38;;;;;;;;;13.00;11.50;;;;;;;;5039779;28;62041;-85
2023/04/16 09:18:03;;;;;;;;;24.75;12.50;;;;;;;;5023392;28;62287;-84
2023/04/16 09:20:28;;;;;;;;;20.25;11.00;;;;;;;;5022708;28;61803;-84
2023/04/16 09:22:55;;;;;;;;;21.25;16.50;;;;;;;;5041145;28;62065;-84
2023/04/16 09:25:21;;;;;;;;;19.75;13.50;;;;;;;;5041349;28;62202;-86
2023/04/16 09:27:48;;;;;;;;;20.00;12.50;;;;;;;;5039149;28;61993;-84
2023/04/16 09:30:23;;;;;;;;;16.25;14.25;;;;;;;;5043583;28;61713;-84
2023/04/16 09:32:50;;;;;;;;;12.00;10.50;;;;;;;;5035312;28;62724;-84
2023/04/16 09:35:16;;;;;;;;;18.00;10.50;;;;;;;;5035557;28;62811;-83
2023/04/16 09:37:41;;;;;;;;;13.50;9.75;;;;;;;;5039331;28;61935;-84
2023/04/16 09:40:06;;;;;;;;;9.50;9.00;;;;;;;;5042757;28;61771;-84
2023/04/16 09:42:33;;;;;;;;;16.50;11.50;;;;;;;;5042330;28;62133;-83
2023/04/16 09:44:58;;;;;;;;;13.50;10.00;;;;;;;;5040904;28;61820;-84
2023/04/16 09:47:25;;;;;;;;;20.25;12.50;;;;;;;;5024187;28;62107;-84
2023/04/16 09:50:03;;;;;;;;;15.00;14.00;;;;;;;;5041853;28;62037;-82
2023/04/16 09:52:29;;;;;;;;;14.75;12.50;;;;;;;;5023527;28;62098;-82
2023/04/16 09:54:55;;;;;;;;;19.00;12.25;;;;;;;;5032075;28;61918;-82
2023/04/16 09:57:21;;;;;;;;;12.00;11.50;;;;;;;;5021928;28;62100;-83
2023/04/16 09:59:47;;;;;;;;;11.25;10.25;;;;;;;;5017776;28;61894;-83
2023/04/16 10:02:12;;;;;;;;;13.75;8.00;;;;;;;;5029227;28;62114;-82
2023/04/16 10:04:50;;;;;;;;;8.50;7.00;;;;;;;;5042036;28;62751;-82
2023/04/16 10:07:16;;;;;;;;;14.25;10.00;;;;;;;;5039198;28;61970;-81
2023/04/16 10:09:41;;;;;;;;;11.25;7.75;;;;;;;;5040069;28;61890;-83
2023/04/16 10:12:07;;;;;;;;;17.25;15.00;;;;;;;;5009649;28;61891;-84
2023/04/16 10:14:35;;;;;;;;;12.00;12.00;;;;;;;;5037779;28;61975;-86
2023/04/16 10:17:01;;;;;;;;;27.75;22.00;;;;;;;;5023458;28;61899;-85
2023/04/16 10:19:26;;;;;;;;;17.00;16.00;;;;;;;;5042249;28;61668;-86
2023/04/16 10:21:52;;;;;;;;;12.00;12.00;;;;;;;;5042160;28;61827;-84
2023/04/16 10:24:17;;;;;;;;;12.50;11.00;;;;;;;;5041190;28;62008;-88
2023/04/16 10:26:43;;;;;;;;;15.25;14.75;;;;;;;;5041876;28;61845;-83
2023/04/16 10:29:12;;;;;;;;;17.75;12.00;;;;;;;;5021351;28;61965;-82
2023/04/16 10:31:38;;;;;;;;;15.50;12.25;;;;;;;;5022929;28;61768;-84
2023/04/16 10:34:04;;;;;;;;;13.00;11.25;;;;;;;;5038829;28;62158;-85
2023/04/16 10:36:30;;;;;;;;;10.00;10.00;;;;;;;;5022481;28;61890;-83
2023/04/16 10:38:58;;;;;;;;;13.25;10.50;;;;;;;;5023846;28;61883;-83
2023/04/16 10:41:27;;;;;;;;;10.25;7.00;;;;;;;;5041108;28;61819;-82
2023/04/16 10:43:53;;;;;;;;;15.00;12.75;;;;;;;;5023084;28;63892;-82
2023/04/16 10:46:22;;;;;;;;;10.50;10.00;;;;;;;;5040492;28;62043;-85
2023/04/16 10:48:48;;;;;;;;;8.75;7.50;;;;;;;;5032515;28;61959;-81
2023/04/16 10:51:24;;;;;;;;;11.25;9.50;;;;;;;;5027386;28;62123;-84
2023/04/16 10:53:50;;;;;;;;;6.25;6.25;;;;;;;;5040517;28;62891;-82
2023/04/16 10:56:21;;;;;;;;;11.00;8.50;;;;;;;;5037209;28;61879;-80
2023/04/16 10:58:46;;;;;;;;;10.75;7.75;;;;;;;;5022951;28;62095;-80
2023/04/16 11:01:12;;;;;;;;;13.25;11.00;;;;;;;;5039984;28;61889;-79
2023/04/16 11:03:41;;;;;;;;;12.00;11.00;;;;;;;;5059036;28;61959;-79
2023/04/16 11:06:23;;;;;;;;;10.75;8.75;;;;;;;;5034147;28;61902;-79
2023/04/16 11:08:50;;;;;;;;;9.75;7.75;;;;;;;;5021346;28;62009;-77
2023/04/16 11:11:16;;;;;;;;;6.00;6.00;;;;;;;;5034314;28;61935;-78
2023/04/16 11:13:43;;;;;;;;;9.00;7.75;;;;;;;;5040345;28;61975;-78
2023/04/16 11:16:09;;;;;;;;;10.75;8.00;;;;;;;;5022894;28;61859;-78
2023/04/16 11:18:35;;;;;;;;;9.50;7.50;;;;;;;;5023256;28;61776;-78
2023/04/16 11:21:00;;;;;;;;;12.50;9.25;;;;;;;;5041636;28;61820;-78
2023/04/16 11:23:26;;;;;;;;;10.25;9.50;;;;;;;;5018286;28;63777;-78
2023/04/16 11:25:55;;;;;;;;;6.00;6.00;;;;;;;;5020363;28;62223;-79
2023/04/16 11:28:30;;;;;;;;;12.25;10.50;;;;;;;;5038263;28;61921;-79
2023/04/16 11:30:55;;;;;;;;;17.75;11.25;;;;;;;;5039499;28;62129;-79
2023/04/16 11:33:21;;;;;;;;;10.00;10.00;;;;;;;;5016713;28;63932;-79
2023/04/16 11:35:55;;;;;;;;;9.00;5.75;;;;;;;;5039067;28;61877;-80
2023/04/16 11:38:31;;;;;;;;;6.75;6.75;;;;;;;;5020064;28;61875;-78
2023/04/16 11:40:56;;;;;;;;;9.75;9.50;;;;;;;;5037093;28;61724;-78
2023/04/16 11:43:21;;;;;;;;;7.75;7.75;;;;;;;;5040818;28;62765;-78
2023/04/16 11:45:57;;;;;;;;;8.75;5.50;;;;;;;;5024219;28;61997;-79
2023/04/16 11:48:22;;;;;;;;;5.00;3.75;;;;;;;;5040680;28;61763;-78
2023/04/16 11:50:54;;;;;;;;;16.25;12.00;;;;;;;;5043078;28;62487;-79
2023/04/16 11:53:20;;;;;;;;;6.75;4.75;;;;;;;;5023838;28;63851;-80
2023/04/16 11:55:45;;;;;;;;;8.00;5.50;;;;;;;;5030654;28;62036;-80
2023/04/16 11:58:15;;;;;;;;;7.50;6.00;;;;;;;;5024369;28;61877;-81
2023/04/16 12:00:40;;;;;;;;;6.25;6.25;;;;;;;;5029226;28;62224;-85
2023/04/16 12:03:05;;;;;;;;;5.75;5.00;;;;;;;;5043690;28;62649;-86
2023/04/16 12:05:36;;;;;;;;;5.25;4.00;;;;;;;;5047930;28;61896;-84
2023/04/16 12:08:02;;;;;;;;;4.50;3.50;;;;;;;;5032825;28;62232;-84
2023/04/16 12:10:39;;;;;;;;;5.75;5.75;;;;;;;;5015590;28;61872;-85
2023/04/16 12:13:11;;;;;;;;;6.00;5.00;;;;;;;;5033467;28;61930;-81
2023/04/16 12:15:43;;;;;;;;;6.25;5.00;;;;;;;;5034547;28;61852;-81
2023/04/16 12:18:09;;;;;;;;;7.25;6.75;;;;;;;;5037883;28;62004;-83
2023/04/16 12:20:40;;;;;;;;;14.75;12.75;;;;;;;;5038803;28;61796;-82
2023/04/16 12:23:07;;;;;;;;;5.50;5.25;;;;;;;;5040027;28;62576;-81
2023/04/16 12:25:32;;;;;;;;;3.67;3.67;;;;;;;;5041428;28;61786;-81
2023/04/16 12:27:57;;;;;;;;;6.67;5.33;;;;;;;;5040891;28;62201;-83
2023/04/16 12:30:23;;;;;;;;;3.00;3.00;;;;;;;;5022780;28;62455;-81
2023/04/16 12:32:50;;;;;;;;;4.25;2.50;;;;;;;;5038682;28;62082;-82
2023/04/16 12:35:30;;;;;;;;;1.67;0.67;;;;;;;;5042180;28;62091;-82
2023/04/16 12:37:56;;;;;;;;;4.33;3.00;;;;;;;;5022570;28;62117;-85
2023/04/16 12:40:21;;;;;;;;;2.00;2.00;;;;;;;;5041462;28;62205;-80
2023/04/16 12:42:46;;;;;;;;;2.67;2.00;;;;;;;;5041748;28;61714;-79
2023/04/16 12:45:11;;;;;;;;;4.67;3.67;;;;;;;;5031497;28;61987;-79
2023/04/16 12:47:36;;;;;;;;;3.00;2.00;;;;;;;;5040079;28;61845;-79
2023/04/16 12:50:02;;;;;;;;;2.67;2.67;;;;;;;;5018837;28;62094;-80
2023/04/16 12:52:27;;;;;;;;;2.33;2.33;;;;;;;;5022437;28;63849;-79
2023/04/16 12:54:53;;;;;;;;;2.67;2.00;;;;;;;;5017279;28;61818;-79
2023/04/16 12:57:18;;;;;;;;;2.33;2.33;;;;;;;;5043611;28;61882;-80
2023/04/16 12:59:45;;;;;;;;;4.00;2.33;;;;;;;;5024580;28;62419;-80
2023/04/16 13:02:10;;;;;;;;;2.00;2.00;;;;;;;;5042321;28;61897;-79
2023/04/16 13:04:35;;;;;;;;;3.33;3.33;;;;;;;;5036003;28;61802;-81
2023/04/16 13:07:00;;;;;;;;;3.00;2.00;;;;;;;;5018476;28;61985;-80
2023/04/16 13:09:26;;;;;;;;;2.00;2.00;;;;;;;;5023619;28;62045;-79
2023/04/16 13:11:51;;;;;;;;;2.67;2.67;;;;;;;;5024545;28;64691;-79
2023/04/16 13:14:18;;;;;;;;;2.00;2.00;;;;;;;;5041529;28;62618;-79
2023/04/16 13:16:45;;;;;;;;;3.00;3.00;;;;;;;;5020655;28;61989;-79
2023/04/16 13:19:10;;;;;;;;;3.00;1.67;;;;;;;;5016174;28;61955;-79
2023/04/16 13:21:36;;;;;;;;;2.00;2.00;;;;;;;;5011752;28;62907;-79
2023/04/16 13:24:02;;;;;;;;;3.67;3.00;;;;;;;;5015141;28;61929;-78
2023/04/16 13:26:28;;;;;;;;;5.33;2.33;;;;;;;;4995112;28;61833;-79
2023/04/16 13:28:53;;;;;;;;;3.33;2.33;;;;;;;;5003479;28;62228;-78
2023/04/16 13:31:20;;;;;;;;;2.33;2.33;;;;;;;;5020185;28;61803;-81
2023/04/16 13:33:46;;;;;;;;;3.00;3.00;;;;;;;;5023234;28;62191;-82
2023/04/16 13:36:11;;;;;;;;;1.33;1.33;;;;;;;;5016482;28;61887;-83
2023/04/16 13:38:38;;;;;;;;;2.33;1.00;;;;;;;;5003085;28;61811;-81
2023/04/16 13:41:04;;;;;;;;;3.00;1.33;;;;;;;;5003134;28;63850;-81
2023/04/16 13:43:30;;;;;;;;;2.00;2.00;;;;;;;;5020916;28;62021;-82
2023/04/16 13:45:55;;;;;;;;;2.00;2.00;;;;;;;;5021172;28;61890;-82
2023/04/16 13:48:20;;;;;;;;;2.33;2.33;;;;;;;;5021237;28;61868;-81
2023/04/16 13:50:46;;;;;;;;;1.67;1.67;;;;;;;;5002301;28;63772;-81
2023/04/16 13:53:11;;;;;;;;;3.00;1.33;;;;;;;;5020265;28;61928;-82
2023/04/16 13:55:36;;;;;;;;;3.33;3.33;;;;;;;;5002582;28;61717;-82
2023/04/16 13:58:01;;;;;;;;;3.00;2.00;;;;;;;;5021759;28;61821;-82
2023/04/16 14:00:27;;;;;;;;;2.33;2.33;;;;;;;;5020429;28;62034;-82
2023/04/16 14:02:52;;;;;;;;;3.00;2.67;;;;;;;;5000198;28;61965;-81
2023/04/16 14:05:18;;;;;;;;;3.33;2.33;;;;;;;;5020222;28;61778;-81
2023/04/16 14:07:43;;;;;;;;;5.33;2.33;;;;;;;;5002509;28;61852;-82
2023/04/16 14:10:09;;;;;;;;;6.00;3.00;;;;;;;;5015064;28;61903;-82
2023/04/16 14:12:35;;;;;;;;;3.00;2.00;;;;;;;;4992604;28;62158;-82
2023/04/16 14:15:03;;;;;;;;;3.33;3.33;;;;;;;;4986439;28;61909;-82
2023/04/16 14:17:28;;;;;;;;;4.67;2.67;;;;;;;;5029126;28;61989;-82